createdAt,value
2017-11-30T00:00:27.345Z,30.02
2017-11-30T00:02:54.956Z,27.42
2017-11-30T00:05:22.536Z,34.42
2017-11-30T00:07:50.101Z,30.90
2017-11-30T00:10:17.675Z,26.40
2017-11-30T00:12:45.243Z,37.67
2017-11-30T00:15:12.875Z,30.12
2017-11-30T00:17:41.455Z,31.12
2017-11-30T00:20:09.029Z,34.83
2017-11-30T00:22:36.607Z,33.55
2017-11-30T00:25:04.175Z,31.43
2017-11-30T00:27:31.805Z,36.25
2017-11-30T00:29:59.416Z,33.53
2017-11-30T00:32:26.990Z,34.77
2017-11-30T00:34:54.562Z,36.33
2017-11-30T00:37:22.827Z,28.17
2017-11-30T00:39:50.424Z,30.10
2017-11-30T00:42:29.857Z,34.92
2017-11-30T00:44:57.526Z,31.77
2017-11-30T00:47:25.101Z,35.47
2017-11-30T00:49:53.486Z,37.90
2017-11-30T00:52:21.134Z,31.15
2017-11-30T00:54:49.652Z,28.00
2017-11-30T00:57:18.017Z,39.13
2017-11-30T00:59:46.343Z,33.65
2017-11-30T01:02:13.917Z,30.98
2017-11-30T01:04:41.494Z,29.37
2017-11-30T01:07:09.150Z,33.73
2017-11-30T01:09:37.615Z,28.03
2017-11-30T01:12:05.918Z,33.35
2017-11-30T01:14:34.366Z,32.57
2017-11-30T01:17:01.930Z,29.77
2017-11-30T01:19:30.299Z,29.40
2017-11-30T01:21:58.718Z,33.43
2017-11-30T01:24:27.082Z,31.00
2017-11-30T01:26:54.758Z,33.45
2017-11-30T01:29:23.257Z,40.50
2017-11-30T01:31:50.905Z,38.17
2017-11-30T01:34:19.391Z,35.10
2017-11-30T01:36:46.963Z,32.78
2017-11-30T01:39:14.577Z,34.85
2017-11-30T01:41:42.184Z,31.65
2017-11-30T01:44:10.659Z,31.65
2017-11-30T01:46:38.319Z,30.00
2017-11-30T01:49:05.916Z,36.97
2017-11-30T01:51:34.325Z,30.17
2017-11-30T01:54:01.890Z,31.20
2017-11-30T01:56:29.490Z,31.17
2017-11-30T01:58:57.202Z,29.27
2017-11-30T02:01:24.827Z,30.33
2017-11-30T02:03:52.401Z,32.10
2017-11-30T02:06:20.001Z,28.10
2017-11-30T02:08:47.590Z,38.30
2017-11-30T02:11:15.189Z,29.87
2017-11-30T02:13:42.827Z,29.53
2017-11-30T02:16:10.432Z,26.97
2017-11-30T02:18:38.025Z,34.70
2017-11-30T02:21:05.621Z,33.90
2017-11-30T02:23:33.258Z,27.00
2017-11-30T02:26:01.638Z,27.73
2017-11-30T02:28:29.202Z,31.83
2017-11-30T02:30:56.796Z,29.60
2017-11-30T02:33:24.374Z,26.23
2017-11-30T02:35:51.985Z,29.23
2017-11-30T02:38:19.616Z,24.25
2017-11-30T02:40:47.680Z,29.17
2017-11-30T02:43:16.780Z,28.17
2017-11-30T02:45:44.346Z,29.77
2017-11-30T02:48:12.690Z,28.87
2017-11-30T02:50:40.254Z,34.50
2017-11-30T02:53:07.823Z,29.37
2017-11-30T02:55:35.429Z,26.80
2017-11-30T02:58:03.055Z,26.23
2017-11-30T03:00:30.628Z,27.02
2017-11-30T03:02:58.203Z,23.03
2017-11-30T03:05:25.766Z,25.30
2017-11-30T03:07:54.126Z,28.67
2017-11-30T03:10:21.697Z,28.23
2017-11-30T03:12:49.274Z,28.95
2017-11-30T03:15:16.872Z,32.00
2017-11-30T03:17:44.510Z,27.67
2017-11-30T03:20:12.090Z,27.47
2017-11-30T03:22:40.717Z,30.00
2017-11-30T03:25:08.321Z,27.23
2017-11-30T03:27:35.902Z,31.23
2017-11-30T03:30:03.484Z,31.33
2017-11-30T03:32:31.061Z,25.20
2017-11-30T03:34:58.638Z,33.20
2017-11-30T03:37:26.202Z,32.07
2017-11-30T03:39:53.773Z,26.47
2017-11-30T03:42:21.387Z,29.60
2017-11-30T03:44:48.950Z,23.83
2017-11-30T03:47:16.567Z,32.77
2017-11-30T03:49:44.135Z,32.10
2017-11-30T03:52:11.701Z,24.80
2017-11-30T03:54:39.270Z,30.30
2017-11-30T03:57:06.839Z,26.07
2017-11-30T03:59:34.463Z,33.10
2017-11-30T04:02:02.983Z,27.52
2017-11-30T04:04:31.315Z,28.50
2017-11-30T04:06:58.913Z,29.90
2017-11-30T04:09:26.550Z,32.43
2017-11-30T04:11:54.218Z,29.17
2017-11-30T04:14:21.879Z,27.80
2017-11-30T04:16:49.446Z,29.67
2017-11-30T04:19:17.012Z,25.37
2017-11-30T04:21:44.583Z,25.73
2017-11-30T04:24:12.151Z,20.60
2017-11-30T04:26:40.494Z,23.33
2017-11-30T04:29:08.981Z,26.70
2017-11-30T04:31:37.343Z,25.80
2017-11-30T04:34:04.901Z,43.90
2017-11-30T04:36:32.463Z,48.33
2017-11-30T04:39:00.062Z,40.90
2017-11-30T04:41:27.630Z,41.10
2017-11-30T04:43:55.199Z,44.47
2017-11-30T04:46:22.769Z,39.10
2017-11-30T04:48:50.348Z,34.60
2017-11-30T04:51:17.921Z,39.57
2017-11-30T04:53:45.494Z,35.67
2017-11-30T04:56:13.165Z,37.13
2017-11-30T04:58:40.734Z,35.77
2017-11-30T05:01:08.297Z,30.07
2017-11-30T05:03:35.865Z,33.00
2017-11-30T05:06:03.437Z,33.70
2017-11-30T05:08:30.994Z,35.20
2017-11-30T05:10:58.554Z,29.03
2017-11-30T05:13:26.125Z,32.63
2017-11-30T05:15:53.686Z,31.67
2017-11-30T05:18:21.253Z,30.23
2017-11-30T05:20:48.885Z,32.03
2017-11-30T05:23:16.448Z,33.63
2017-11-30T05:25:44.009Z,32.33
2017-11-30T05:28:11.570Z,32.37
2017-11-30T05:30:39.221Z,34.07
2017-11-30T05:33:06.819Z,39.70
2017-11-30T05:35:35.366Z,34.43
2017-11-30T05:38:02.925Z,34.93
2017-11-30T05:40:30.489Z,32.47
2017-11-30T05:42:58.049Z,36.73
2017-11-30T05:45:25.608Z,33.17
2017-11-30T05:47:53.172Z,37.37
2017-11-30T05:50:21.637Z,36.60
2017-11-30T05:52:50.137Z,36.92
2017-11-30T05:55:17.702Z,37.60
2017-11-30T05:57:45.266Z,40.43
2017-11-30T06:00:12.917Z,35.20
2017-11-30T06:02:41.379Z,34.33
2017-11-30T06:05:08.963Z,38.87
2017-11-30T06:07:36.626Z,39.10
2017-11-30T06:10:04.194Z,32.90
2017-11-30T06:12:31.850Z,37.27
2017-11-30T06:14:59.405Z,28.17
2017-11-30T06:17:26.966Z,31.23
2017-11-30T06:19:54.795Z,32.17
2017-11-30T06:22:23.261Z,36.38
2017-11-30T06:24:50.827Z,28.47
2017-11-30T06:27:18.389Z,29.93
2017-11-30T06:29:45.956Z,35.30
2017-11-30T06:32:13.572Z,38.20
2017-11-30T06:34:41.224Z,38.40
2017-11-30T06:37:08.785Z,34.80
2017-11-30T06:39:36.346Z,28.90
2017-11-30T06:42:03.906Z,36.03
2017-11-30T06:44:31.469Z,27.97
2017-11-30T06:46:59.125Z,37.03
2017-11-30T06:49:26.718Z,32.27
2017-11-30T06:51:54.287Z,47.43
2017-11-30T06:54:22.933Z,41.67
2017-11-30T06:56:50.490Z,32.60
2017-11-30T06:59:18.050Z,38.00
2017-11-30T07:01:45.610Z,36.43
2017-11-30T07:04:13.174Z,42.57
2017-11-30T07:06:40.838Z,40.90
2017-11-30T07:09:08.396Z,45.23
2017-11-30T07:11:37.029Z,34.83
2017-11-30T07:14:05.311Z,37.28
2017-11-30T07:16:33.779Z,37.50
2017-11-30T07:19:02.375Z,39.43
2017-11-30T07:21:29.994Z,46.00
2017-11-30T07:23:58.277Z,37.80
2017-11-30T07:26:25.844Z,44.67
2017-11-30T07:28:53.469Z,40.83
2017-11-30T07:31:21.026Z,44.73
2017-11-30T07:33:48.593Z,45.73
2017-11-30T07:36:16.158Z,51.80
2017-11-30T07:38:43.845Z,46.07
2017-11-30T07:41:12.330Z,53.73
2017-11-30T07:43:39.903Z,50.83
2017-11-30T07:46:08.360Z,48.00
2017-11-30T07:48:36.808Z,56.23
2017-11-30T07:51:04.409Z,40.67
2017-11-30T07:53:31.984Z,48.70
2017-11-30T07:55:59.541Z,50.23
2017-11-30T07:58:27.199Z,41.13
2017-11-30T08:00:55.662Z,48.40
2017-11-30T08:03:24.242Z,44.70
2017-11-30T08:05:51.800Z,38.17
2017-11-30T08:08:19.355Z,48.57
2017-11-30T08:10:47.606Z,44.37
2017-11-30T08:13:15.171Z,45.37
2017-11-30T08:15:43.700Z,42.80
2017-11-30T08:18:11.262Z,39.93
2017-11-30T08:20:39.704Z,40.57
2017-11-30T08:23:07.266Z,46.50
2017-11-30T08:25:34.821Z,53.97
2017-11-30T08:28:03.283Z,53.33
2017-11-30T08:30:30.846Z,52.93
2017-11-30T08:32:58.565Z,46.57
2017-11-30T08:35:26.124Z,55.47
2017-11-30T08:37:53.682Z,58.77
2017-11-30T08:40:22.062Z,69.67
2017-11-30T08:42:49.622Z,60.13
2017-11-30T08:45:17.189Z,61.20
2017-11-30T08:47:44.754Z,75.43
2017-11-30T08:50:12.317Z,74.23
2017-11-30T08:52:39.932Z,78.00
2017-11-30T08:55:07.497Z,65.87
2017-11-30T08:57:35.095Z,51.07
2017-11-30T09:00:02.754Z,50.37
2017-11-30T09:02:30.315Z,42.33
2017-11-30T09:04:57.883Z,48.27
2017-11-30T09:07:25.475Z,42.23
2017-11-30T09:09:53.037Z,42.90
2017-11-30T09:12:20.649Z,41.07
2017-11-30T09:14:49.107Z,44.07
2017-11-30T09:17:16.672Z,38.90
2017-11-30T09:19:45.144Z,35.37
2017-11-30T09:22:12.708Z,41.40
2017-11-30T09:24:40.267Z,35.67
2017-11-30T09:27:08.519Z,42.77
2017-11-30T09:29:36.114Z,41.63
2017-11-30T09:32:03.678Z,39.00
2017-11-30T09:34:32.107Z,40.50
2017-11-30T09:36:59.750Z,44.93
2017-11-30T09:39:27.353Z,47.17
2017-11-30T09:41:54.907Z,53.67
2017-11-30T09:44:23.358Z,45.13
2017-11-30T09:46:50.918Z,41.47
2017-11-30T09:49:18.483Z,48.43
2017-11-30T09:51:46.051Z,47.33
2017-11-30T09:54:14.565Z,50.40
2017-11-30T09:56:42.134Z,43.73
2017-11-30T09:59:09.707Z,39.20
2017-11-30T10:01:37.270Z,45.77
2017-11-30T10:04:04.869Z,52.10
2017-11-30T10:06:32.431Z,43.73
2017-11-30T10:09:00.892Z,46.63
2017-11-30T10:11:29.012Z,41.07
2017-11-30T10:13:56.602Z,45.27
2017-11-30T10:16:24.197Z,44.57
2017-11-30T10:18:51.762Z,43.90
2017-11-30T10:21:19.417Z,47.43
2017-11-30T10:23:47.080Z,43.47
2017-11-30T10:26:14.639Z,43.07
2017-11-30T10:28:42.244Z,44.60
2017-11-30T10:31:09.802Z,46.03
2017-11-30T10:33:37.406Z,37.63
2017-11-30T10:36:04.975Z,38.80
2017-11-30T10:38:32.554Z,38.50
2017-11-30T10:41:00.172Z,37.73
2017-11-30T10:43:27.743Z,41.00
2017-11-30T10:45:55.333Z,33.73
2017-11-30T10:48:22.899Z,36.57
2017-11-30T10:50:50.461Z,36.17
2017-11-30T10:53:18.030Z,36.50
2017-11-30T10:55:45.584Z,28.10
2017-11-30T10:58:13.182Z,35.33
2017-11-30T11:00:40.799Z,39.43
2017-11-30T11:03:08.397Z,42.70
2017-11-30T11:05:35.966Z,40.33
2017-11-30T11:08:03.577Z,35.33
2017-11-30T11:10:31.243Z,44.83
2017-11-30T11:12:58.805Z,40.57
2017-11-30T11:15:26.358Z,30.50
2017-11-30T11:17:54.030Z,35.17
2017-11-30T11:20:22.416Z,39.03
2017-11-30T11:22:49.975Z,48.03
2017-11-30T11:25:18.513Z,38.50
2017-11-30T11:27:46.079Z,41.93
2017-11-30T11:30:13.637Z,43.60
2017-11-30T11:32:42.218Z,42.13
2017-11-30T11:35:09.782Z,46.93
2017-11-30T11:37:37.341Z,46.53
2017-11-30T11:40:04.911Z,40.35
2017-11-30T11:42:32.474Z,50.63
2017-11-30T11:45:00.946Z,41.77
2017-11-30T11:47:29.421Z,43.77
2017-11-30T11:49:56.981Z,38.77
2017-11-30T11:52:25.399Z,39.97
2017-11-30T11:54:52.966Z,39.83
2017-11-30T11:57:20.525Z,37.57
2017-11-30T11:59:48.988Z,41.90
2017-11-30T12:02:16.573Z,54.17
2017-11-30T12:04:45.028Z,40.23
2017-11-30T12:07:13.526Z,51.03
2017-11-30T12:09:41.095Z,43.23
2017-11-30T12:12:09.553Z,55.13
2017-11-30T12:14:37.110Z,54.00
2017-11-30T12:17:05.562Z,49.30
2017-11-30T12:19:33.114Z,46.93
2017-11-30T12:22:01.593Z,53.00
2017-11-30T12:24:30.046Z,44.77
2017-11-30T12:26:57.616Z,42.73
2017-11-30T12:29:25.174Z,54.90
2017-11-30T12:31:53.537Z,40.77
2017-11-30T12:34:22.095Z,53.93
2017-11-30T12:36:49.693Z,45.03
2017-11-30T12:39:17.252Z,40.30
2017-11-30T12:41:45.586Z,45.67
2017-11-30T12:44:13.186Z,39.70
2017-11-30T12:46:41.084Z,37.40
2017-11-30T12:49:09.560Z,41.80
2017-11-30T12:51:37.123Z,36.20
2017-11-30T12:54:04.682Z,41.20
2017-11-30T12:56:32.243Z,41.70
2017-11-30T12:58:59.844Z,44.10
2017-11-30T13:01:28.269Z,44.27
2017-11-30T13:03:56.129Z,44.57
2017-11-30T13:06:23.792Z,42.70
2017-11-30T13:08:51.448Z,47.40
2017-11-30T13:11:19.156Z,41.13
2017-11-30T13:13:46.749Z,49.27
2017-11-30T13:16:14.303Z,41.87
2017-11-30T13:18:41.901Z,44.77
2017-11-30T13:21:10.365Z,44.77
2017-11-30T13:23:37.960Z,56.00
2017-11-30T13:26:05.521Z,42.47
2017-11-30T13:28:33.443Z,44.93
2017-11-30T13:31:01.037Z,48.80
2017-11-30T13:33:28.596Z,47.83
2017-11-30T13:35:56.153Z,51.30
2017-11-30T13:38:23.816Z,51.77
2017-11-30T13:40:51.376Z,43.67
2017-11-30T13:43:19.997Z,46.80
2017-11-30T13:45:47.553Z,53.47
2017-11-30T13:48:15.103Z,49.87
2017-11-30T13:50:43.669Z,57.03
2017-11-30T13:53:11.332Z,51.20
2017-11-30T13:55:39.803Z,53.30
2017-11-30T13:58:19.187Z,56.07
2017-11-30T14:00:47.599Z,51.27
2017-11-30T14:03:16.112Z,47.03
2017-11-30T14:05:44.572Z,42.93
2017-11-30T14:08:13.016Z,41.27
2017-11-30T14:10:41.495Z,65.10
2017-11-30T14:13:09.820Z,39.80
2017-11-30T14:15:38.137Z,44.47
2017-11-30T14:18:06.462Z,38.93
2017-11-30T14:20:34.926Z,40.27
2017-11-30T14:23:03.239Z,40.10
2017-11-30T14:25:30.833Z,35.40
2017-11-30T14:27:59.280Z,31.70
2017-11-30T14:30:27.616Z,36.07
2017-11-30T14:32:56.060Z,35.93
2017-11-30T14:35:23.620Z,34.63
2017-11-30T14:37:51.964Z,38.37
2017-11-30T14:40:20.417Z,35.13
2017-11-30T14:42:48.692Z,38.17
2017-11-30T14:45:17.029Z,40.00
2017-11-30T14:47:45.516Z,37.67
2017-11-30T14:50:13.109Z,41.17
2017-11-30T14:52:41.460Z,38.77
2017-11-30T14:55:09.944Z,42.83
2017-11-30T14:57:38.443Z,41.57
2017-11-30T15:00:06.001Z,42.27
2017-11-30T15:02:34.372Z,35.30
2017-11-30T15:05:01.965Z,45.27
2017-11-30T15:07:30.307Z,39.87
2017-11-30T15:09:57.892Z,40.23
2017-11-30T15:12:26.349Z,40.43
2017-11-30T15:14:53.948Z,42.47
2017-11-30T15:17:22.497Z,52.77
2017-11-30T15:19:50.873Z,46.60
2017-11-30T15:22:19.296Z,42.50
2017-11-30T15:24:46.879Z,49.90
2017-11-30T15:27:15.278Z,48.23
2017-11-30T15:29:43.683Z,49.23
2017-11-30T15:32:12.129Z,52.47
2017-11-30T15:34:40.630Z,52.67
2017-11-30T15:37:09.021Z,49.37
2017-11-30T15:39:36.628Z,53.40
2017-11-30T15:42:05.113Z,53.57
2017-11-30T15:44:33.453Z,65.63
2017-11-30T15:47:01.787Z,50.50
2017-11-30T15:49:30.184Z,57.77
2017-11-30T15:51:58.525Z,64.43
2017-11-30T15:54:26.825Z,66.77
2017-11-30T15:56:55.156Z,52.50
2017-11-30T15:59:22.755Z,61.77
2017-11-30T16:01:51.092Z,57.50
2017-11-30T16:04:18.652Z,69.57
2017-11-30T16:06:46.208Z,68.27
2017-11-30T16:09:14.577Z,71.17
2017-11-30T16:11:42.135Z,66.63
2017-11-30T16:14:09.691Z,78.23
2017-11-30T16:16:37.257Z,70.37
2017-11-30T16:19:04.818Z,81.83
2017-11-30T16:21:32.428Z,77.70
2017-11-30T16:23:59.985Z,70.00
2017-11-30T16:26:27.596Z,78.27
2017-11-30T16:28:55.159Z,76.67
2017-11-30T16:31:23.772Z,68.37
2017-11-30T16:33:51.336Z,72.03
2017-11-30T16:36:18.896Z,63.20
2017-11-30T16:38:46.451Z,66.53
2017-11-30T16:41:14.052Z,76.53
2017-11-30T16:43:41.623Z,84.67
2017-11-30T16:46:09.184Z,76.17
2017-11-30T16:48:36.776Z,89.83
2017-11-30T16:51:04.335Z,81.43
2017-11-30T16:53:31.908Z,70.95
2017-11-30T16:55:59.475Z,81.75
2017-11-30T16:58:27.037Z,70.07
2017-11-30T17:00:54.595Z,88.77
2017-11-30T17:03:22.158Z,85.10
2017-11-30T17:05:49.732Z,80.18
2017-11-30T17:08:17.292Z,82.50
2017-11-30T17:10:44.859Z,70.47
2017-11-30T17:13:12.419Z,62.67
2017-11-30T17:15:39.977Z,83.47
2017-11-30T17:18:08.256Z,80.40
2017-11-30T17:20:35.880Z,88.50
2017-11-30T17:23:04.273Z,85.17
2017-11-30T17:25:31.863Z,67.17
2017-11-30T17:28:00.126Z,66.80
2017-11-30T17:30:27.719Z,65.60
2017-11-30T17:32:56.107Z,71.80
2017-11-30T17:35:24.555Z,81.07
2017-11-30T17:37:52.156Z,80.40
2017-11-30T17:40:19.723Z,74.60
2017-11-30T17:42:47.281Z,72.60
2017-11-30T17:45:15.725Z,76.80
2017-11-30T17:47:43.284Z,68.17
2017-11-30T17:50:11.839Z,82.70
2017-11-30T17:52:40.328Z,79.00
2017-11-30T17:55:07.921Z,89.33
2017-11-30T17:57:36.186Z,90.50
2017-11-30T18:00:04.444Z,84.47
2017-11-30T18:02:32.905Z,71.67
2017-11-30T18:05:01.332Z,76.33
2017-11-30T18:07:29.937Z,86.07
2017-11-30T18:09:57.635Z,83.03
2017-11-30T18:12:25.261Z,82.77
2017-11-30T18:14:52.823Z,85.23
2017-11-30T18:17:20.424Z,84.17
2017-11-30T18:19:48.028Z,111.50
2017-11-30T18:22:15.636Z,100.87
2017-11-30T18:24:43.197Z,92.07
2017-11-30T18:27:11.682Z,86.47
2017-11-30T18:29:40.033Z,98.50
2017-11-30T18:32:07.599Z,75.70
2017-11-30T18:34:35.172Z,72.23
2017-11-30T18:37:02.843Z,78.23
2017-11-30T18:39:30.453Z,96.82
2017-11-30T18:41:58.035Z,92.07
2017-11-30T18:44:26.436Z,94.17
2017-11-30T18:46:54.779Z,83.33
2017-11-30T18:49:23.148Z,81.90
2017-11-30T18:51:51.753Z,78.70
2017-11-30T18:54:19.321Z,67.57
2017-11-30T18:56:46.884Z,68.70
2017-11-30T18:59:14.442Z,71.93
2017-11-30T19:01:42.000Z,65.60
2017-11-30T19:04:09.611Z,77.67
2017-11-30T19:06:37.172Z,63.63
2017-11-30T19:09:04.736Z,76.27
2017-11-30T19:11:32.296Z,76.53
2017-11-30T19:13:59.900Z,79.53
2017-11-30T19:16:27.504Z,68.63
2017-11-30T19:18:55.064Z,63.83
2017-11-30T19:21:22.632Z,64.28
2017-11-30T19:23:50.281Z,64.80
2017-11-30T19:26:17.849Z,60.17
2017-11-30T19:28:45.445Z,70.70
2017-11-30T19:31:13.135Z,58.20
2017-11-30T19:33:40.736Z,64.83
2017-11-30T19:36:09.231Z,57.93
2017-11-30T19:38:36.797Z,68.50
2017-11-30T19:41:04.438Z,77.37
2017-11-30T19:43:32.906Z,74.60
2017-11-30T19:46:00.525Z,73.53
2017-11-30T19:48:28.081Z,57.73
2017-11-30T19:50:55.702Z,69.20
2017-11-30T19:53:23.269Z,63.20
2017-11-30T19:55:50.924Z,68.73
2017-11-30T19:58:18.487Z,56.20
2017-11-30T20:00:46.144Z,81.30
2017-11-30T20:03:13.708Z,88.30
2017-11-30T20:05:41.369Z,75.22
2017-11-30T20:08:08.936Z,57.20
2017-11-30T20:10:36.495Z,69.13
2017-11-30T20:13:04.061Z,63.97
2017-11-30T20:15:31.716Z,67.00
2017-11-30T20:17:59.345Z,73.27
2017-11-30T20:20:27.232Z,70.43
2017-11-30T20:22:54.809Z,63.23
2017-11-30T20:25:22.378Z,66.77
2017-11-30T20:27:49.944Z,62.67
2017-11-30T20:30:17.596Z,57.67
2017-11-30T20:32:46.104Z,65.50
2017-11-30T20:35:14.828Z,83.53
2017-11-30T20:37:42.388Z,82.57
2017-11-30T20:40:10.721Z,69.57
2017-11-30T20:42:39.334Z,89.00
2017-11-30T20:45:06.952Z,73.57
2017-11-30T20:47:34.524Z,78.73
2017-11-30T20:50:02.119Z,77.87
2017-11-30T20:52:29.699Z,70.10
2017-11-30T20:54:57.400Z,80.60
2017-11-30T20:57:25.800Z,79.50
2017-11-30T20:59:53.375Z,75.68
2017-11-30T21:02:21.001Z,70.78
2017-11-30T21:04:48.579Z,92.82
2017-11-30T21:07:16.140Z,70.07
2017-11-30T21:09:44.481Z,71.65
2017-11-30T21:12:12.980Z,72.15
2017-11-30T21:14:41.372Z,81.35
2017-11-30T21:17:08.988Z,66.68
2017-11-30T21:19:36.561Z,81.70
2017-11-30T21:22:04.922Z,85.12
2017-11-30T21:24:32.533Z,101.20
2017-11-30T21:27:00.101Z,92.35
2017-11-30T21:29:28.635Z,89.25
2017-11-30T21:31:57.057Z,102.27
2017-11-30T21:34:25.541Z,89.50
2017-11-30T21:36:53.113Z,91.90
2017-11-30T21:39:20.755Z,86.53
2017-11-30T21:41:49.113Z,91.97
2017-11-30T21:44:16.796Z,83.80
2017-11-30T21:46:44.364Z,91.33
2017-11-30T21:49:11.932Z,85.82
2017-11-30T21:51:39.501Z,83.35
2017-11-30T21:54:07.151Z,88.90
2017-11-30T21:56:34.768Z,78.97
2017-11-30T21:59:02.368Z,82.80
2017-11-30T22:01:29.939Z,84.62
2017-11-30T22:03:57.555Z,75.93
2017-11-30T22:06:25.120Z,87.33
2017-11-30T22:08:52.688Z,77.37
2017-11-30T22:11:20.274Z,74.90
2017-11-30T22:13:47.896Z,75.53
2017-11-30T22:16:15.504Z,66.43
2017-11-30T22:18:43.075Z,73.60
2017-11-30T22:21:10.647Z,67.70
2017-11-30T22:23:38.276Z,78.23
2017-11-30T22:26:05.852Z,68.37
2017-11-30T22:28:33.499Z,71.70
2017-11-30T22:31:01.168Z,71.40
2017-11-30T22:33:28.737Z,81.50
2017-11-30T22:35:56.392Z,83.03
2017-11-30T22:38:24.018Z,70.68
2017-11-30T22:40:51.594Z,68.65
2017-11-30T22:43:19.160Z,68.33
2017-11-30T22:45:47.651Z,62.67
2017-11-30T22:48:16.144Z,78.87
2017-11-30T22:50:43.716Z,84.90
2017-11-30T22:53:11.322Z,72.80
2017-11-30T22:55:38.882Z,66.37
2017-11-30T22:58:07.405Z,76.85
2017-11-30T23:00:41.770Z,83.37
2017-11-30T23:03:09.347Z,96.93
2017-11-30T23:05:36.939Z,97.45
2017-11-30T23:08:04.503Z,95.10
2017-11-30T23:10:32.126Z,92.18
2017-11-30T23:12:59.663Z,91.93
2017-11-30T23:15:27.291Z,86.28
2017-11-30T23:17:54.871Z,91.25
2017-11-30T23:20:22.435Z,97.07
2017-11-30T23:22:50.694Z,110.43
2017-11-30T23:25:18.988Z,113.75
2017-11-30T23:27:46.562Z,105.85
2017-11-30T23:30:14.128Z,96.93
2017-11-30T23:32:41.749Z,97.22
2017-11-30T23:35:09.320Z,104.45
2017-11-30T23:37:37.793Z,79.72
2017-11-30T23:40:05.460Z,92.43
2017-11-30T23:42:33.076Z,82.62
2017-11-30T23:45:00.676Z,69.57
2017-11-30T23:47:28.256Z,80.40
2017-11-30T23:49:56.608Z,71.82
2017-11-30T23:52:24.283Z,69.12
2017-11-30T23:54:51.908Z,76.97
2017-11-30T23:57:19.474Z,94.37
2017-11-30T23:59:47.069Z,84.65
